sensor_id;sensor_type;location;lat;lon;timestamp;P1;durP1;ratioP1;P2;durP2;ratioP2
24729;SDS011;12832;52.392;13.066;2023-02-13T00:02:17;1.60;;;1.50;;
24729;SDS011;12832;52.392;13.066;2023-02-13T00:04:44;1.90;;;1.80;;
24729;SDS011;12832;52.392;13.066;2023-02-13T00:07:10;1.40;;;1.30;;
24729;SDS011;12832;52.392;13.066;2023-02-13T00:09:36;1.60;;;1.50;;
24729;SDS011;12832;52.392;13.066;2023-02-13T00:12:04;1.40;;;1.30;;
24729;SDS011;12832;52.392;13.066;2023-02-13T00:14:33;1.65;;;1.55;;
24729;SDS011;12832;52.392;13.066;2023-02-13T00:17:00;1.63;;;1.52;;
24729;SDS011;12832;52.392;13.066;2023-02-13T00:19:27;2.00;;;1.73;;
24729;SDS011;12832;52.392;13.066;2023-02-13T00:21:53;1.42;;;1.33;;
24729;SDS011;12832;52.392;13.066;2023-02-13T00:24:19;1.30;;;1.20;;
24729;SDS011;12832;52.392;13.066;2023-02-13T00:26:45;1.30;;;1.20;;
24729;SDS011;12832;52.392;13.066;2023-02-13T00:29:11;1.50;;;1.40;;
24729;SDS011;12832;52.392;13.066;2023-02-13T00:31:37;1.60;;;1.50;;
24729;SDS011;12832;52.392;13.066;2023-02-13T00:34:04;1.40;;;1.30;;
24729;SDS011;12832;52.392;13.066;2023-02-13T00:36:30;1.50;;;1.40;;
24729;SDS011;12832;52.392;13.066;2023-02-13T00:38:56;1.67;;;1.58;;
24729;SDS011;12832;52.392;13.066;2023-02-13T00:41:22;1.30;;;1.20;;
24729;SDS011;12832;52.392;13.066;2023-02-13T00:43:49;1.42;;;1.33;;
24729;SDS011;12832;52.392;13.066;2023-02-13T00:46:15;1.35;;;1.25;;
24729;SDS011;12832;52.392;13.066;2023-02-13T00:48:42;1.50;;;1.40;;
24729;SDS011;12832;52.392;13.066;2023-02-13T00:51:09;1.40;;;1.30;;
24729;SDS011;12832;52.392;13.066;2023-02-13T00:53:36;1.63;;;1.52;;
24729;SDS011;12832;52.392;13.066;2023-02-13T00:56:03;1.63;;;1.52;;
24729;SDS011;12832;52.392;13.066;2023-02-13T00:58:31;1.75;;;1.65;;
24729;SDS011;12832;52.392;13.066;2023-02-13T01:00:58;1.50;;;1.40;;
24729;SDS011;12832;52.392;13.066;2023-02-13T01:03:25;1.38;;;1.27;;
24729;SDS011;12832;52.392;13.066;2023-02-13T01:05:51;1.42;;;1.33;;
24729;SDS011;12832;52.392;13.066;2023-02-13T01:08:18;1.48;;;1.38;;
24729;SDS011;12832;52.392;13.066;2023-02-13T01:10:45;1.50;;;1.40;;
24729;SDS011;12832;52.392;13.066;2023-02-13T01:13:13;1.40;;;1.30;;
24729;SDS011;12832;52.392;13.066;2023-02-13T01:15:40;1.58;;;1.48;;
24729;SDS011;12832;52.392;13.066;2023-02-13T01:18:07;1.40;;;1.30;;
24729;SDS011;12832;52.392;13.066;2023-02-13T01:20:34;1.70;;;1.60;;
24729;SDS011;12832;52.392;13.066;2023-02-13T01:23:00;1.65;;;1.55;;
24729;SDS011;12832;52.392;13.066;2023-02-13T01:25:26;1.13;;;1.10;;
24729;SDS011;12832;52.392;13.066;2023-02-13T01:27:52;1.60;;;1.50;;
24729;SDS011;12832;52.392;13.066;2023-02-13T01:30:18;1.48;;;1.38;;
24729;SDS011;12832;52.392;13.066;2023-02-13T01:32:45;1.52;;;1.42;;
24729;SDS011;12832;52.392;13.066;2023-02-13T01:35:12;1.45;;;1.35;;
24729;SDS011;12832;52.392;13.066;2023-02-13T01:37:40;1.50;;;1.40;;
24729;SDS011;12832;52.392;13.066;2023-02-13T01:40:08;1.50;;;1.40;;
24729;SDS011;12832;52.392;13.066;2023-02-13T01:42:36;1.60;;;1.50;;
24729;SDS011;12832;52.392;13.066;2023-02-13T01:45:04;1.35;;;1.25;;
24729;SDS011;12832;52.392;13.066;2023-02-13T01:47:59;1.50;;;1.40;;
24729;SDS011;12832;52.392;13.066;2023-02-13T01:50:31;1.50;;;1.40;;
24729;SDS011;12832;52.392;13.066;2023-02-13T01:53:09;1.42;;;1.33;;
24729;SDS011;12832;52.392;13.066;2023-02-13T01:55:41;1.73;;;1.60;;
24729;SDS011;12832;52.392;13.066;2023-02-13T01:58:16;1.77;;;1.67;;
24729;SDS011;12832;52.392;13.066;2023-02-13T02:00:45;1.50;;;1.40;;
24729;SDS011;12832;52.392;13.066;2023-02-13T02:03:16;1.90;;;1.50;;
24729;SDS011;12832;52.392;13.066;2023-02-13T02:05:48;1.50;;;1.40;;
24729;SDS011;12832;52.392;13.066;2023-02-13T02:08:16;1.58;;;1.48;;
24729;SDS011;12832;52.392;13.066;2023-02-13T02:10:43;1.48;;;1.38;;
24729;SDS011;12832;52.392;13.066;2023-02-13T02:15:39;1.50;;;1.40;;
24729;SDS011;12832;52.392;13.066;2023-02-13T02:18:12;1.33;;;1.23;;
24729;SDS011;12832;52.392;13.066;2023-02-13T02:21:04;1.40;;;1.30;;
24729;SDS011;12832;52.392;13.066;2023-02-13T02:23:42;1.40;;;1.30;;
24729;SDS011;12832;52.392;13.066;2023-02-13T02:37:35;1.65;;;1.55;;
24729;SDS011;12832;52.392;13.066;2023-02-13T02:40:38;1.58;;;1.48;;
24729;SDS011;12832;52.392;13.066;2023-02-13T02:54:00;1.67;;;1.58;;
24729;SDS011;12832;52.392;13.066;2023-02-13T02:56:53;1.40;;;1.30;;
24729;SDS011;12832;52.392;13.066;2023-02-13T02:59:24;1.48;;;1.38;;
24729;SDS011;12832;52.392;13.066;2023-02-13T03:02:11;1.38;;;1.27;;
24729;SDS011;12832;52.392;13.066;2023-02-13T03:04:56;1.35;;;1.25;;
24729;SDS011;12832;52.392;13.066;2023-02-13T03:07:43;1.48;;;1.38;;
24729;SDS011;12832;52.392;13.066;2023-02-13T03:10:15;1.50;;;1.40;;
24729;SDS011;12832;52.392;13.066;2023-02-13T03:13:08;1.65;;;1.55;;
24729;SDS011;12832;52.392;13.066;2023-02-13T03:15:51;1.42;;;1.33;;
24729;SDS011;12832;52.392;13.066;2023-02-13T03:18:44;1.60;;;1.50;;
24729;SDS011;12832;52.392;13.066;2023-02-13T03:21:52;1.50;;;1.40;;
24729;SDS011;12832;52.392;13.066;2023-02-13T03:24:53;1.55;;;1.45;;
24729;SDS011;12832;52.392;13.066;2023-02-13T03:27:45;1.30;;;1.20;;
24729;SDS011;12832;52.392;13.066;2023-02-13T03:30:52;1.25;;;1.08;;
24729;SDS011;12832;52.392;13.066;2023-02-13T03:33:55;1.45;;;1.35;;
24729;SDS011;12832;52.392;13.066;2023-02-13T03:42:16;1.42;;;1.33;;
24729;SDS011;12832;52.392;13.066;2023-02-13T03:44:55;1.40;;;1.30;;
24729;SDS011;12832;52.392;13.066;2023-02-13T03:48:00;1.50;;;1.27;;
24729;SDS011;12832;52.392;13.066;2023-02-13T03:50:35;1.40;;;1.30;;
24729;SDS011;12832;52.392;13.066;2023-02-13T03:53:09;1.30;;;1.20;;
24729;SDS011;12832;52.392;13.066;2023-02-13T03:55:42;1.45;;;1.35;;
24729;SDS011;12832;52.392;13.066;2023-02-13T03:58:31;1.42;;;1.33;;
24729;SDS011;12832;52.392;13.066;2023-02-13T04:01:27;1.30;;;1.20;;
24729;SDS011;12832;52.392;13.066;2023-02-13T04:04:10;1.55;;;1.45;;
24729;SDS011;12832;52.392;13.066;2023-02-13T04:06:45;1.50;;;1.40;;
24729;SDS011;12832;52.392;13.066;2023-02-13T04:09:22;1.42;;;1.33;;
24729;SDS011;12832;52.392;13.066;2023-02-13T04:11:55;1.60;;;1.50;;
24729;SDS011;12832;52.392;13.066;2023-02-13T04:14:55;1.40;;;1.30;;
24729;SDS011;12832;52.392;13.066;2023-02-13T04:17:28;1.10;;;1.10;;
24729;SDS011;12832;52.392;13.066;2023-02-13T04:19:59;1.40;;;1.25;;
24729;SDS011;12832;52.392;13.066;2023-02-13T04:22:25;1.40;;;1.30;;
24729;SDS011;12832;52.392;13.066;2023-02-13T04:24:51;1.80;;;1.70;;
24729;SDS011;12832;52.392;13.066;2023-02-13T04:27:17;2.20;;;1.10;;
24729;SDS011;12832;52.392;13.066;2023-02-13T04:29:43;0.98;;;0.88;;
24729;SDS011;12832;52.392;13.066;2023-02-13T04:32:10;4.43;;;1.88;;
24729;SDS011;12832;52.392;13.066;2023-02-13T04:34:37;2.50;;;1.10;;
24729;SDS011;12832;52.392;13.066;2023-02-13T04:37:03;0.82;;;0.82;;
24729;SDS011;12832;52.392;13.066;2023-02-13T04:39:29;0.80;;;0.80;;
24729;SDS011;12832;52.392;13.066;2023-02-13T04:41:55;3.70;;;1.30;;
24729;SDS011;12832;52.392;13.066;2023-02-13T04:44:21;1.27;;;1.17;;
24729;SDS011;12832;52.392;13.066;2023-02-13T04:46:47;1.23;;;0.98;;
24729;SDS011;12832;52.392;13.066;2023-02-13T04:49:14;1.00;;;0.90;;
24729;SDS011;12832;52.392;13.066;2023-02-13T04:51:40;1.23;;;0.98;;
24729;SDS011;12832;52.392;13.066;2023-02-13T04:54:06;2.75;;;0.82;;
24729;SDS011;12832;52.392;13.066;2023-02-13T04:56:32;2.05;;;1.05;;
24729;SDS011;12832;52.392;13.066;2023-02-13T04:58:58;0.73;;;0.73;;
24729;SDS011;12832;52.392;13.066;2023-02-13T05:01:24;1.65;;;0.90;;
24729;SDS011;12832;52.392;13.066;2023-02-13T05:03:50;1.48;;;1.20;;
24729;SDS011;12832;52.392;13.066;2023-02-13T05:06:16;2.72;;;1.00;;
24729;SDS011;12832;52.392;13.066;2023-02-13T05:08:42;0.90;;;0.90;;
24729;SDS011;12832;52.392;13.066;2023-02-13T05:11:08;0.85;;;0.85;;
24729;SDS011;12832;52.392;13.066;2023-02-13T05:13:34;1.17;;;1.08;;
24729;SDS011;12832;52.392;13.066;2023-02-13T05:16:00;1.23;;;0.95;;
24729;SDS011;12832;52.392;13.066;2023-02-13T05:18:27;0.98;;;0.73;;
24729;SDS011;12832;52.392;13.066;2023-02-13T05:20:53;0.80;;;0.80;;
24729;SDS011;12832;52.392;13.066;2023-02-13T05:23:39;1.30;;;0.90;;
24729;SDS011;12832;52.392;13.066;2023-02-13T05:26:05;1.70;;;0.80;;
24729;SDS011;12832;52.392;13.066;2023-02-13T05:28:31;1.00;;;0.80;;
24729;SDS011;12832;52.392;13.066;2023-02-13T05:31:16;1.92;;;0.80;;
24729;SDS011;12832;52.392;13.066;2023-02-13T05:33:42;0.85;;;0.85;;
24729;SDS011;12832;52.392;13.066;2023-02-13T05:36:08;1.05;;;0.90;;
24729;SDS011;12832;52.392;13.066;2023-02-13T05:38:34;0.80;;;0.80;;
24729;SDS011;12832;52.392;13.066;2023-02-13T05:41:01;0.90;;;0.90;;
24729;SDS011;12832;52.392;13.066;2023-02-13T05:43:27;0.70;;;0.70;;
24729;SDS011;12832;52.392;13.066;2023-02-13T05:46:01;0.60;;;0.60;;
24729;SDS011;12832;52.392;13.066;2023-02-13T05:48:31;0.70;;;0.70;;
24729;SDS011;12832;52.392;13.066;2023-02-13T05:50:57;0.60;;;0.60;;
24729;SDS011;12832;52.392;13.066;2023-02-13T05:53:24;0.70;;;0.70;;
24729;SDS011;12832;52.392;13.066;2023-02-13T05:55:50;1.30;;;0.63;;
24729;SDS011;12832;52.392;13.066;2023-02-13T05:58:17;0.50;;;0.50;;
24729;SDS011;12832;52.392;13.066;2023-02-13T06:00:44;1.70;;;0.60;;
24729;SDS011;12832;52.392;13.066;2023-02-13T06:03:11;2.30;;;1.00;;
24729;SDS011;12832;52.392;13.066;2023-02-13T06:05:38;1.45;;;0.70;;
24729;SDS011;12832;52.392;13.066;2023-02-13T06:08:05;0.70;;;0.70;;
24729;SDS011;12832;52.392;13.066;2023-02-13T06:10:31;0.75;;;0.75;;
24729;SDS011;12832;52.392;13.066;2023-02-13T06:12:57;0.40;;;0.40;;
24729;SDS011;12832;52.392;13.066;2023-02-13T06:15:23;0.90;;;0.57;;
24729;SDS011;12832;52.392;13.066;2023-02-13T06:17:49;0.85;;;0.63;;
24729;SDS011;12832;52.392;13.066;2023-02-13T06:20:15;0.90;;;0.57;;
24729;SDS011;12832;52.392;13.066;2023-02-13T06:22:41;0.50;;;0.50;;
24729;SDS011;12832;52.392;13.066;2023-02-13T06:25:07;1.70;;;0.50;;
24729;SDS011;12832;52.392;13.066;2023-02-13T06:27:33;0.47;;;0.47;;
24729;SDS011;12832;52.392;13.066;2023-02-13T06:29:59;0.60;;;0.50;;
24729;SDS011;12832;52.392;13.066;2023-02-13T06:32:25;0.70;;;0.70;;
24729;SDS011;12832;52.392;13.066;2023-02-13T06:34:52;0.50;;;0.50;;
24729;SDS011;12832;52.392;13.066;2023-02-13T06:37:18;1.00;;;0.90;;
24729;SDS011;12832;52.392;13.066;2023-02-13T06:39:44;0.98;;;0.60;;
24729;SDS011;12832;52.392;13.066;2023-02-13T06:42:10;0.80;;;0.80;;
24729;SDS011;12832;52.392;13.066;2023-02-13T06:44:36;1.67;;;1.58;;
24729;SDS011;12832;52.392;13.066;2023-02-13T06:47:02;2.35;;;2.15;;
24729;SDS011;12832;52.392;13.066;2023-02-13T06:49:28;2.30;;;2.10;;
24729;SDS011;12832;52.392;13.066;2023-02-13T06:51:54;2.47;;;2.17;;
24729;SDS011;12832;52.392;13.066;2023-02-13T06:54:20;3.17;;;2.30;;
24729;SDS011;12832;52.392;13.066;2023-02-13T06:56:59;3.08;;;2.10;;
24729;SDS011;12832;52.392;13.066;2023-02-13T06:59:25;2.30;;;2.10;;
24729;SDS011;12832;52.392;13.066;2023-02-13T07:01:51;2.45;;;2.25;;
24729;SDS011;12832;52.392;13.066;2023-02-13T07:04:17;2.50;;;2.30;;
24729;SDS011;12832;52.392;13.066;2023-02-13T07:06:43;1.40;;;1.30;;
24729;SDS011;12832;52.392;13.066;2023-02-13T07:09:09;1.30;;;1.15;;
24729;SDS011;12832;52.392;13.066;2023-02-13T07:11:38;1.48;;;1.00;;
24729;SDS011;12832;52.392;13.066;2023-02-13T07:14:07;2.47;;;2.28;;
24729;SDS011;12832;52.392;13.066;2023-02-13T07:16:34;3.75;;;2.10;;
24729;SDS011;12832;52.392;13.066;2023-02-13T07:19:00;2.22;;;2.03;;
24729;SDS011;12832;52.392;13.066;2023-02-13T07:21:26;1.70;;;1.60;;
24729;SDS011;12832;52.392;13.066;2023-02-13T07:23:52;2.28;;;2.08;;
24729;SDS011;12832;52.392;13.066;2023-02-13T07:26:18;2.58;;;2.20;;
24729;SDS011;12832;52.392;13.066;2023-02-13T07:28:44;1.75;;;1.65;;
24729;SDS011;12832;52.392;13.066;2023-02-13T07:31:11;2.47;;;1.75;;
24729;SDS011;12832;52.392;13.066;2023-02-13T07:33:37;2.50;;;1.40;;
24729;SDS011;12832;52.392;13.066;2023-02-13T07:36:03;1.33;;;1.10;;
24729;SDS011;12832;52.392;13.066;2023-02-13T07:38:30;1.33;;;1.23;;
24729;SDS011;12832;52.392;13.066;2023-02-13T07:40:57;1.75;;;1.08;;
24729;SDS011;12832;52.392;13.066;2023-02-13T07:43:24;3.22;;;1.63;;
24729;SDS011;12832;52.392;13.066;2023-02-13T07:45:51;2.17;;;1.80;;
24729;SDS011;12832;52.392;13.066;2023-02-13T07:48:23;5.00;;;2.38;;
24729;SDS011;12832;52.392;13.066;2023-02-13T07:50:52;3.30;;;2.97;;
24729;SDS011;12832;52.392;13.066;2023-02-13T07:53:18;4.95;;;3.00;;
24729;SDS011;12832;52.392;13.066;2023-02-13T07:55:44;3.08;;;2.78;;
24729;SDS011;12832;52.392;13.066;2023-02-13T07:58:11;5.65;;;3.30;;
24729;SDS011;12832;52.392;13.066;2023-02-13T08:00:37;4.40;;;3.15;;
24729;SDS011;12832;52.392;13.066;2023-02-13T08:03:03;4.28;;;3.97;;
24729;SDS011;12832;52.392;13.066;2023-02-13T08:05:30;7.80;;;4.85;;
24729;SDS011;12832;52.392;13.066;2023-02-13T08:07:57;6.00;;;3.92;;
24729;SDS011;12832;52.392;13.066;2023-02-13T08:10:23;5.57;;;4.43;;
24729;SDS011;12832;52.392;13.066;2023-02-13T08:13:08;5.90;;;3.35;;
24729;SDS011;12832;52.392;13.066;2023-02-13T08:15:36;5.97;;;3.03;;
24729;SDS011;12832;52.392;13.066;2023-02-13T08:18:02;3.85;;;3.28;;
24729;SDS011;12832;52.392;13.066;2023-02-13T08:20:28;4.15;;;2.78;;
24729;SDS011;12832;52.392;13.066;2023-02-13T08:23:00;5.78;;;2.42;;
24729;SDS011;12832;52.392;13.066;2023-02-13T08:25:31;7.75;;;2.22;;
24729;SDS011;12832;52.392;13.066;2023-02-13T08:27:59;8.35;;;1.90;;
24729;SDS011;12832;52.392;13.066;2023-02-13T08:30:25;5.05;;;2.03;;
24729;SDS011;12832;52.392;13.066;2023-02-13T08:32:51;3.30;;;1.70;;
24729;SDS011;12832;52.392;13.066;2023-02-13T08:35:19;4.15;;;1.70;;
24729;SDS011;12832;52.392;13.066;2023-02-13T08:37:47;6.18;;;1.90;;
24729;SDS011;12832;52.392;13.066;2023-02-13T08:40:13;4.78;;;1.50;;
24729;SDS011;12832;52.392;13.066;2023-02-13T08:42:40;7.03;;;1.52;;
24729;SDS011;12832;52.392;13.066;2023-02-13T08:45:06;5.03;;;1.77;;
24729;SDS011;12832;52.392;13.066;2023-02-13T08:47:36;5.05;;;1.60;;
24729;SDS011;12832;52.392;13.066;2023-02-13T08:50:04;4.30;;;2.00;;
24729;SDS011;12832;52.392;13.066;2023-02-13T08:52:30;5.00;;;1.80;;
24729;SDS011;12832;52.392;13.066;2023-02-13T08:54:57;1.63;;;1.42;;
24729;SDS011;12832;52.392;13.066;2023-02-13T08:57:23;4.38;;;1.52;;
24729;SDS011;12832;52.392;13.066;2023-02-13T08:59:49;3.92;;;1.50;;
24729;SDS011;12832;52.392;13.066;2023-02-13T09:02:15;1.30;;;1.20;;
24729;SDS011;12832;52.392;13.066;2023-02-13T09:04:41;4.97;;;1.70;;
24729;SDS011;12832;52.392;13.066;2023-02-13T09:07:07;2.90;;;1.30;;
24729;SDS011;12832;52.392;13.066;2023-02-13T09:09:34;3.08;;;1.50;;
24729;SDS011;12832;52.392;13.066;2023-02-13T09:12:00;3.45;;;1.65;;
24729;SDS011;12832;52.392;13.066;2023-02-13T09:14:26;3.17;;;1.67;;
24729;SDS011;12832;52.392;13.066;2023-02-13T09:16:52;2.03;;;1.48;;
24729;SDS011;12832;52.392;13.066;2023-02-13T09:19:18;1.55;;;1.40;;
24729;SDS011;12832;52.392;13.066;2023-02-13T09:21:44;1.67;;;1.52;;
24729;SDS011;12832;52.392;13.066;2023-02-13T09:24:10;1.67;;;1.30;;
24729;SDS011;12832;52.392;13.066;2023-02-13T09:26:37;2.08;;;1.40;;
24729;SDS011;12832;52.392;13.066;2023-02-13T09:29:03;1.55;;;1.42;;
24729;SDS011;12832;52.392;13.066;2023-02-13T09:31:29;1.23;;;1.10;;
24729;SDS011;12832;52.392;13.066;2023-02-13T09:33:55;1.92;;;1.40;;
24729;SDS011;12832;52.392;13.066;2023-02-13T09:36:22;1.38;;;1.23;;
24729;SDS011;12832;52.392;13.066;2023-02-13T09:38:55;1.25;;;1.13;;
24729;SDS011;12832;52.392;13.066;2023-02-13T09:41:30;2.03;;;1.50;;
24729;SDS011;12832;52.392;13.066;2023-02-13T09:44:10;1.23;;;1.13;;
24729;SDS011;12832;52.392;13.066;2023-02-13T09:47:02;1.90;;;1.20;;
24729;SDS011;12832;52.392;13.066;2023-02-13T09:49:30;1.58;;;1.20;;
24729;SDS011;12832;52.392;13.066;2023-02-13T09:52:01;2.17;;;1.08;;
24729;SDS011;12832;52.392;13.066;2023-02-13T09:54:28;2.65;;;1.48;;
24729;SDS011;12832;52.392;13.066;2023-02-13T10:00:03;2.38;;;1.25;;
24729;SDS011;12832;52.392;13.066;2023-02-13T10:05:19;0.98;;;0.90;;
24729;SDS011;12832;52.392;13.066;2023-02-13T10:13:03;1.98;;;1.50;;
24729;SDS011;12832;52.392;13.066;2023-02-13T10:16:04;3.03;;;1.40;;
24729;SDS011;12832;52.392;13.066;2023-02-13T10:21:20;2.15;;;1.35;;
24729;SDS011;12832;52.392;13.066;2023-02-13T10:23:57;1.15;;;1.05;;
24729;SDS011;12832;52.392;13.066;2023-02-13T10:26:31;2.67;;;1.52;;
24729;SDS011;12832;52.392;13.066;2023-02-13T10:29:22;2.85;;;1.70;;
24729;SDS011;12832;52.392;13.066;2023-02-13T10:32:29;3.60;;;1.63;;
24729;SDS011;12832;52.392;13.066;2023-02-13T10:35:02;2.92;;;1.55;;
24729;SDS011;12832;52.392;13.066;2023-02-13T10:37:34;2.58;;;2.05;;
24729;SDS011;12832;52.392;13.066;2023-02-13T10:40:04;2.45;;;1.77;;
24729;SDS011;12832;52.392;13.066;2023-02-13T10:43:37;1.77;;;1.50;;
24729;SDS011;12832;52.392;13.066;2023-02-13T10:48:39;5.03;;;1.55;;
24729;SDS011;12832;52.392;13.066;2023-02-13T10:51:23;1.73;;;1.63;;
24729;SDS011;12832;52.392;13.066;2023-02-13T10:57:21;1.70;;;1.38;;
24729;SDS011;12832;52.392;13.066;2023-02-13T11:00:19;2.03;;;1.58;;
24729;SDS011;12832;52.392;13.066;2023-02-13T11:02:54;4.80;;;1.67;;
24729;SDS011;12832;52.392;13.066;2023-02-13T11:05:22;1.98;;;1.40;;
24729;SDS011;12832;52.392;13.066;2023-02-13T11:07:50;2.80;;;1.40;;
24729;SDS011;12832;52.392;13.066;2023-02-13T11:10:20;2.35;;;1.33;;
24729;SDS011;12832;52.392;13.066;2023-02-13T11:12:48;2.22;;;1.85;;
24729;SDS011;12832;52.392;13.066;2023-02-13T11:17:55;2.63;;;1.23;;
24729;SDS011;12832;52.392;13.066;2023-02-13T11:22:53;1.95;;;1.60;;
24729;SDS011;12832;52.392;13.066;2023-02-13T11:25:26;2.78;;;1.70;;
24729;SDS011;12832;52.392;13.066;2023-02-13T11:28:06;3.10;;;1.52;;
24729;SDS011;12832;52.392;13.066;2023-02-13T11:30:41;2.08;;;1.50;;
24729;SDS011;12832;52.392;13.066;2023-02-13T11:35:43;1.73;;;1.63;;
24729;SDS011;12832;52.392;13.066;2023-02-13T11:40:40;2.75;;;1.40;;
24729;SDS011;12832;52.392;13.066;2023-02-13T11:43:27;1.95;;;1.15;;
24729;SDS011;12832;52.392;13.066;2023-02-13T11:46:02;2.63;;;1.42;;
24729;SDS011;12832;52.392;13.066;2023-02-13T11:48:36;1.60;;;1.38;;
24729;SDS011;12832;52.392;13.066;2023-02-13T11:51:02;2.42;;;1.38;;
24729;SDS011;12832;52.392;13.066;2023-02-13T11:53:30;1.77;;;1.38;;
24729;SDS011;12832;52.392;13.066;2023-02-13T11:56:10;1.13;;;1.02;;
24729;SDS011;12832;52.392;13.066;2023-02-13T11:58:40;1.75;;;1.40;;
24729;SDS011;12832;52.392;13.066;2023-02-13T12:01:26;1.50;;;1.30;;
24729;SDS011;12832;52.392;13.066;2023-02-13T12:04:01;1.95;;;1.25;;
24729;SDS011;12832;52.392;13.066;2023-02-13T12:06:40;1.48;;;1.38;;
24729;SDS011;12832;52.392;13.066;2023-02-13T12:09:25;1.60;;;1.50;;
24729;SDS011;12832;52.392;13.066;2023-02-13T12:11:54;1.58;;;1.33;;
24729;SDS011;12832;52.392;13.066;2023-02-13T12:14:25;1.83;;;1.40;;
24729;SDS011;12832;52.392;13.066;2023-02-13T12:17:02;1.88;;;1.10;;
24729;SDS011;12832;52.392;13.066;2023-02-13T12:19:38;1.67;;;1.20;;
24729;SDS011;12832;52.392;13.066;2023-02-13T12:22:13;1.38;;;1.13;;
24729;SDS011;12832;52.392;13.066;2023-02-13T12:25:17;1.60;;;1.40;;
24729;SDS011;12832;52.392;13.066;2023-02-13T12:36:32;1.40;;;1.30;;
24729;SDS011;12832;52.392;13.066;2023-02-13T12:47:17;3.33;;;1.65;;
24729;SDS011;12832;52.392;13.066;2023-02-13T12:55:49;2.15;;;1.40;;
24729;SDS011;12832;52.392;13.066;2023-02-13T13:07:14;1.20;;;1.10;;
24729;SDS011;12832;52.392;13.066;2023-02-13T13:09:54;1.65;;;1.25;;
24729;SDS011;12832;52.392;13.066;2023-02-13T13:12:53;3.08;;;1.00;;
24729;SDS011;12832;52.392;13.066;2023-02-13T13:15:31;1.20;;;1.10;;
24729;SDS011;12832;52.392;13.066;2023-02-13T13:18:07;1.55;;;1.10;;
24729;SDS011;12832;52.392;13.066;2023-02-13T13:23:31;1.40;;;1.27;;
24729;SDS011;12832;52.392;13.066;2023-02-13T13:26:19;1.75;;;1.30;;
24729;SDS011;12832;52.392;13.066;2023-02-13T13:28:59;1.60;;;1.10;;
24729;SDS011;12832;52.392;13.066;2023-02-13T13:31:28;1.48;;;1.30;;
24729;SDS011;12832;52.392;13.066;2023-02-13T13:34:02;1.50;;;1.20;;
24729;SDS011;12832;52.392;13.066;2023-02-13T13:36:33;1.90;;;1.17;;
24729;SDS011;12832;52.392;13.066;2023-02-13T13:39:15;2.28;;;1.77;;
24729;SDS011;12832;52.392;13.066;2023-02-13T13:42:03;1.77;;;1.67;;
24729;SDS011;12832;52.392;13.066;2023-02-13T13:47:39;1.88;;;1.70;;
24729;SDS011;12832;52.392;13.066;2023-02-13T13:50:16;1.90;;;1.65;;
24729;SDS011;12832;52.392;13.066;2023-02-13T13:53:04;2.47;;;2.10;;
24729;SDS011;12832;52.392;13.066;2023-02-13T13:58:23;2.45;;;1.40;;
24729;SDS011;12832;52.392;13.066;2023-02-13T14:03:46;1.67;;;1.30;;
24729;SDS011;12832;52.392;13.066;2023-02-13T14:09:44;1.92;;;1.42;;
24729;SDS011;12832;52.392;13.066;2023-02-13T14:14:57;1.67;;;1.33;;
24729;SDS011;12832;52.392;13.066;2023-02-13T14:20:19;2.03;;;1.52;;
24729;SDS011;12832;52.392;13.066;2023-02-13T14:22:51;1.95;;;1.70;;
24729;SDS011;12832;52.392;13.066;2023-02-13T14:27:58;1.73;;;1.40;;
24729;SDS011;12832;52.392;13.066;2023-02-13T14:30:33;2.47;;;1.35;;
24729;SDS011;12832;52.392;13.066;2023-02-13T14:33:04;1.67;;;1.58;;
24729;SDS011;12832;52.392;13.066;2023-02-13T14:35:35;1.58;;;1.48;;
24729;SDS011;12832;52.392;13.066;2023-02-13T14:38:06;1.65;;;1.45;;
24729;SDS011;12832;52.392;13.066;2023-02-13T14:40:49;2.08;;;1.52;;
24729;SDS011;12832;52.392;13.066;2023-02-13T14:43:18;1.50;;;1.40;;
24729;SDS011;12832;52.392;13.066;2023-02-13T14:45:52;1.70;;;1.60;;
24729;SDS011;12832;52.392;13.066;2023-02-13T14:48:21;1.45;;;1.35;;
24729;SDS011;12832;52.392;13.066;2023-02-13T14:50:54;1.30;;;1.20;;
24729;SDS011;12832;52.392;13.066;2023-02-13T14:53:26;1.73;;;1.30;;
24729;SDS011;12832;52.392;13.066;2023-02-13T14:55:57;3.03;;;1.40;;
24729;SDS011;12832;52.392;13.066;2023-02-13T14:58:34;1.50;;;1.30;;
24729;SDS011;12832;52.392;13.066;2023-02-13T15:01:05;2.17;;;1.98;;
24729;SDS011;12832;52.392;13.066;2023-02-13T15:03:46;1.88;;;1.60;;
24729;SDS011;12832;52.392;13.066;2023-02-13T15:06:25;1.45;;;1.35;;
24729;SDS011;12832;52.392;13.066;2023-02-13T15:08:58;1.52;;;1.42;;
24729;SDS011;12832;52.392;13.066;2023-02-13T15:11:37;1.55;;;1.45;;
24729;SDS011;12832;52.392;13.066;2023-02-13T15:19:42;1.75;;;1.30;;
24729;SDS011;12832;52.392;13.066;2023-02-13T15:24:56;1.58;;;1.48;;
24729;SDS011;12832;52.392;13.066;2023-02-13T15:27:27;3.63;;;1.60;;
24729;SDS011;12832;52.392;13.066;2023-02-13T15:29:57;2.53;;;1.35;;
24729;SDS011;12832;52.392;13.066;2023-02-13T15:32:43;1.50;;;1.40;;
24729;SDS011;12832;52.392;13.066;2023-02-13T15:35:25;1.40;;;1.30;;
24729;SDS011;12832;52.392;13.066;2023-02-13T15:37:54;3.65;;;1.60;;
24729;SDS011;12832;52.392;13.066;2023-02-13T15:42:56;1.65;;;1.48;;
24729;SDS011;12832;52.392;13.066;2023-02-13T15:45:24;1.73;;;1.33;;
24729;SDS011;12832;52.392;13.066;2023-02-13T15:47:53;1.48;;;1.38;;
24729;SDS011;12832;52.392;13.066;2023-02-13T15:50:23;2.70;;;1.60;;
24729;SDS011;12832;52.392;13.066;2023-02-13T15:52:51;2.35;;;1.60;;
24729;SDS011;12832;52.392;13.066;2023-02-13T15:55:19;1.98;;;1.40;;
24729;SDS011;12832;52.392;13.066;2023-02-13T15:57:47;2.33;;;1.52;;
24729;SDS011;12832;52.392;13.066;2023-02-13T16:00:19;2.70;;;1.48;;
24729;SDS011;12832;52.392;13.066;2023-02-13T16:02:51;2.30;;;1.50;;
24729;SDS011;12832;52.392;13.066;2023-02-13T16:05:19;2.63;;;1.58;;
24729;SDS011;12832;52.392;13.066;2023-02-13T16:08:19;2.25;;;1.38;;
24729;SDS011;12832;52.392;13.066;2023-02-13T16:16:30;1.17;;;1.08;;
24729;SDS011;12832;52.392;13.066;2023-02-13T16:19:17;2.20;;;1.42;;
24729;SDS011;12832;52.392;13.066;2023-02-13T16:21:46;0.90;;;0.90;;
24729;SDS011;12832;52.392;13.066;2023-02-13T16:24:14;0.80;;;0.80;;
24729;SDS011;12832;52.392;13.066;2023-02-13T16:26:42;1.20;;;1.08;;
24729;SDS011;12832;52.392;13.066;2023-02-13T16:29:09;1.23;;;1.00;;
24729;SDS011;12832;52.392;13.066;2023-02-13T16:31:41;1.13;;;1.02;;
24729;SDS011;12832;52.392;13.066;2023-02-13T16:34:14;0.95;;;0.95;;
24729;SDS011;12832;52.392;13.066;2023-02-13T16:36:48;1.00;;;1.00;;
24729;SDS011;12832;52.392;13.066;2023-02-13T16:39:18;1.17;;;1.05;;
24729;SDS011;12832;52.392;13.066;2023-02-13T16:41:49;1.10;;;1.00;;
24729;SDS011;12832;52.392;13.066;2023-02-13T16:44:31;1.00;;;0.90;;
24729;SDS011;12832;52.392;13.066;2023-02-13T16:47:01;1.30;;;1.20;;
24729;SDS011;12832;52.392;13.066;2023-02-13T16:49:30;1.10;;;1.00;;
24729;SDS011;12832;52.392;13.066;2023-02-13T16:52:08;1.25;;;1.15;;
24729;SDS011;12832;52.392;13.066;2023-02-13T17:05:23;1.35;;;0.77;;
24729;SDS011;12832;52.392;13.066;2023-02-13T17:07:30;1.55;;;0.90;;
24729;SDS011;12832;52.392;13.066;2023-02-13T17:09:59;1.08;;;0.80;;
24729;SDS011;12832;52.392;13.066;2023-02-13T17:12:44;1.30;;;0.88;;
24729;SDS011;12832;52.392;13.066;2023-02-13T17:15:12;0.98;;;0.98;;
24729;SDS011;12832;52.392;13.066;2023-02-13T17:17:39;1.05;;;0.95;;
24729;SDS011;12832;52.392;13.066;2023-02-13T17:20:06;1.25;;;1.00;;
24729;SDS011;12832;52.392;13.066;2023-02-13T17:25:02;0.90;;;0.90;;
24729;SDS011;12832;52.392;13.066;2023-02-13T17:27:32;2.03;;;1.00;;